N624ML CYSJ-61ME
Flight info
| Callsign | N624ML |
|---|---|
| Flight time | 1h 25m |
| Altitude | 1500 |
| Route | VFR |
| Aircraft | EC35/L-G/C |
Departure
| Time | 2026-04-17 19:34 |
|---|---|
| Airport | Saint John Airport (CYSJ) |
Arrival
| Time | 2026-04-17 20:59 |
|---|---|
| Airport | St Andrews LZ Heliport (61ME) |
| Time | Latitude | Longitude | Altitude | Speed | Heading |
|---|---|---|---|---|---|
| 2026-04-17 19:24 | 45.32701 | -65.88572 | 313 ft | 0 kts | 301° |
| 2026-04-17 19:31 | 45.32700 | -65.88574 | 318 ft | 1 kts | 290° |
| 2026-04-17 19:32 | 45.32691 | -65.88609 | 322 ft | 7 kts | 213° |
| 2026-04-17 19:32 | 45.32652 | -65.88634 | 329 ft | 9 kts | 152° |
| 2026-04-17 19:32 | 45.32597 | -65.88538 | 323 ft | 14 kts | 128° |
| 2026-04-17 19:32 | 45.32516 | -65.88360 | 404 ft | 38 kts | 104° |
| 2026-04-17 19:33 | 45.32745 | -65.88009 | 553 ft | 76 kts | 2° |
| 2026-04-17 19:33 | 45.33252 | -65.88457 | 603 ft | 104 kts | 309° |
| 2026-04-17 19:33 | 45.33312 | -65.89488 | 650 ft | 118 kts | 251° |
| 2026-04-17 19:33 | 45.32848 | -65.90443 | 679 ft | 120 kts | 234° |
| 2026-04-17 19:34 | 45.32372 | -65.91315 | 887 ft | 119 kts | 234° |
| 2026-04-17 19:34 | 45.31833 | -65.92275 | 981 ft | 130 kts | 231° |
| 2026-04-17 19:34 | 45.31257 | -65.93310 | 993 ft | 136 kts | 232° |
| 2026-04-17 19:34 | 45.30671 | -65.94350 | 998 ft | 137 kts | 231° |
| 2026-04-17 19:35 | 45.30080 | -65.95408 | 993 ft | 138 kts | 231° |
| 2026-04-17 19:35 | 45.29477 | -65.96478 | 1000 ft | 138 kts | 231° |
| 2026-04-17 19:35 | 45.28881 | -65.97554 | 1002 ft | 138 kts | 230° |
| 2026-04-17 19:35 | 45.28284 | -65.98612 | 1003 ft | 137 kts | 233° |
| 2026-04-17 19:36 | 45.27659 | -65.99654 | 1004 ft | 137 kts | 232° |
| 2026-04-17 19:36 | 45.27043 | -66.00693 | 1004 ft | 138 kts | 231° |
| 2026-04-17 19:36 | 45.26542 | -66.01835 | 1000 ft | 136 kts | 249° |
| 2026-04-17 19:36 | 45.26175 | -66.03061 | 1005 ft | 136 kts | 249° |
| 2026-04-17 19:37 | 45.25754 | -66.04265 | 1011 ft | 137 kts | 245° |
| 2026-04-17 19:37 | 45.25286 | -66.05470 | 1003 ft | 141 kts | 242° |
| 2026-04-17 19:37 | 45.24790 | -66.06707 | 1000 ft | 140 kts | 244° |
| 2026-04-17 19:37 | 45.24315 | -66.07926 | 999 ft | 139 kts | 244° |
| 2026-04-17 19:38 | 45.23849 | -66.09134 | 1005 ft | 138 kts | 244° |
| 2026-04-17 19:38 | 45.23369 | -66.10347 | 1008 ft | 141 kts | 242° |
| 2026-04-17 19:38 | 45.22889 | -66.11552 | 1008 ft | 140 kts | 245° |
| 2026-04-17 19:38 | 45.22418 | -66.12777 | 995 ft | 140 kts | 244° |
| 2026-04-17 19:39 | 45.21968 | -66.13924 | 1004 ft | 136 kts | 244° |
| 2026-04-17 19:39 | 45.21506 | -66.15123 | 1002 ft | 136 kts | 245° |
| 2026-04-17 19:39 | 45.21043 | -66.16306 | 999 ft | 138 kts | 243° |
| 2026-04-17 19:39 | 45.20576 | -66.17481 | 1002 ft | 136 kts | 244° |
| 2026-04-17 19:40 | 45.20113 | -66.18659 | 1002 ft | 137 kts | 243° |
| 2026-04-17 19:40 | 45.19648 | -66.19836 | 1000 ft | 137 kts | 243° |
| 2026-04-17 19:40 | 45.19192 | -66.21008 | 1001 ft | 137 kts | 243° |
| 2026-04-17 19:40 | 45.18724 | -66.22196 | 1004 ft | 137 kts | 243° |
| 2026-04-17 19:41 | 45.18258 | -66.23380 | 998 ft | 138 kts | 244° |
| 2026-04-17 19:41 | 45.17799 | -66.24582 | 997 ft | 138 kts | 245° |
| 2026-04-17 19:41 | 45.17332 | -66.25765 | 1007 ft | 138 kts | 243° |
| 2026-04-17 19:41 | 45.16852 | -66.26962 | 992 ft | 139 kts | 243° |
| 2026-04-17 19:42 | 45.16392 | -66.28150 | 996 ft | 137 kts | 244° |
| 2026-04-17 19:42 | 45.15935 | -66.29325 | 997 ft | 138 kts | 243° |
| 2026-04-17 19:42 | 45.15463 | -66.30521 | 1001 ft | 139 kts | 244° |
| 2026-04-17 19:42 | 45.14995 | -66.31709 | 1001 ft | 138 kts | 244° |
| 2026-04-17 19:43 | 45.14532 | -66.32891 | 1001 ft | 138 kts | 244° |
| 2026-04-17 19:43 | 45.14064 | -66.34079 | 1000 ft | 139 kts | 243° |
| 2026-04-17 19:43 | 45.13587 | -66.35281 | 999 ft | 138 kts | 243° |
| 2026-04-17 19:43 | 45.13119 | -66.36469 | 999 ft | 139 kts | 244° |
| 2026-04-17 19:44 | 45.12653 | -66.37659 | 1001 ft | 139 kts | 244° |
| 2026-04-17 19:44 | 45.12225 | -66.38880 | 976 ft | 138 kts | 258° |
| 2026-04-17 19:44 | 45.12094 | -66.40213 | 996 ft | 135 kts | 267° |
| 2026-04-17 19:44 | 45.11977 | -66.41520 | 991 ft | 135 kts | 267° |
| 2026-04-17 19:45 | 45.11864 | -66.42836 | 994 ft | 135 kts | 269° |
| 2026-04-17 19:45 | 45.11744 | -66.44167 | 991 ft | 135 kts | 267° |
| 2026-04-17 19:45 | 45.11625 | -66.45493 | 990 ft | 134 kts | 268° |
| 2026-04-17 19:45 | 45.11503 | -66.46809 | 995 ft | 135 kts | 268° |
| 2026-04-17 19:46 | 45.11383 | -66.48131 | 993 ft | 135 kts | 268° |
| 2026-04-17 19:46 | 45.11268 | -66.49435 | 993 ft | 135 kts | 268° |
| 2026-04-17 19:46 | 45.11152 | -66.50761 | 993 ft | 135 kts | 268° |
| 2026-04-17 19:46 | 45.11035 | -66.52084 | 990 ft | 135 kts | 267° |
| 2026-04-17 19:47 | 45.10918 | -66.53387 | 991 ft | 135 kts | 267° |
| 2026-04-17 19:47 | 45.10800 | -66.54702 | 989 ft | 135 kts | 268° |
| 2026-04-17 19:47 | 45.10680 | -66.56030 | 989 ft | 135 kts | 268° |
| 2026-04-17 19:47 | 45.10556 | -66.57353 | 990 ft | 135 kts | 267° |
| 2026-04-17 19:48 | 45.10434 | -66.58672 | 995 ft | 135 kts | 266° |
| 2026-04-17 19:48 | 45.10315 | -66.59992 | 984 ft | 135 kts | 267° |
| 2026-04-17 19:48 | 45.10193 | -66.61324 | 989 ft | 135 kts | 268° |
| 2026-04-17 19:48 | 45.10074 | -66.62637 | 987 ft | 135 kts | 266° |
| 2026-04-17 19:49 | 45.09961 | -66.63961 | 983 ft | 134 kts | 266° |
| 2026-04-17 19:49 | 45.09853 | -66.65275 | 988 ft | 134 kts | 266° |
| 2026-04-17 19:49 | 45.09748 | -66.66584 | 973 ft | 134 kts | 267° |
| 2026-04-17 19:49 | 45.09642 | -66.67873 | 986 ft | 133 kts | 266° |
| 2026-04-17 19:50 | 45.09534 | -66.69189 | 988 ft | 134 kts | 268° |
| 2026-04-17 19:50 | 45.09425 | -66.70486 | 989 ft | 134 kts | 267° |
| 2026-04-17 19:50 | 45.09318 | -66.71800 | 989 ft | 134 kts | 266° |
| 2026-04-17 19:50 | 45.09210 | -66.73116 | 992 ft | 134 kts | 266° |
| 2026-04-17 19:51 | 45.09098 | -66.74435 | 987 ft | 135 kts | 266° |
| 2026-04-17 19:51 | 45.08986 | -66.75745 | 989 ft | 134 kts | 266° |
| 2026-04-17 19:51 | 45.08875 | -66.77056 | 989 ft | 134 kts | 266° |
| 2026-04-17 19:51 | 45.08761 | -66.78368 | 978 ft | 135 kts | 268° |
| 2026-04-17 19:52 | 45.08403 | -66.79630 | 989 ft | 138 kts | 243° |
| 2026-04-17 19:52 | 45.07850 | -66.80737 | 985 ft | 138 kts | 235° |
| 2026-04-17 19:52 | 45.07268 | -66.81840 | 982 ft | 138 kts | 235° |
| 2026-04-17 19:52 | 45.06699 | -66.82928 | 984 ft | 138 kts | 236° |
| 2026-04-17 19:53 | 45.06124 | -66.84023 | 987 ft | 138 kts | 236° |
| 2026-04-17 19:53 | 45.05545 | -66.85123 | 988 ft | 138 kts | 236° |
| 2026-04-17 19:53 | 45.04969 | -66.86221 | 987 ft | 138 kts | 237° |
| 2026-04-17 19:53 | 45.04395 | -66.87314 | 985 ft | 139 kts | 236° |
| 2026-04-17 19:54 | 45.03824 | -66.88406 | 987 ft | 138 kts | 236° |
| 2026-04-17 19:54 | 45.03254 | -66.89490 | 987 ft | 139 kts | 236° |
| 2026-04-17 19:54 | 45.02673 | -66.90584 | 985 ft | 138 kts | 236° |
| 2026-04-17 19:54 | 45.02090 | -66.91677 | 985 ft | 138 kts | 236° |
| 2026-04-17 19:55 | 45.01544 | -66.92771 | 996 ft | 137 kts | 238° |
| 2026-04-17 19:55 | 45.00991 | -66.93895 | 996 ft | 138 kts | 239° |
| 2026-04-17 19:55 | 45.00451 | -66.95003 | 1002 ft | 137 kts | 238° |
| 2026-04-17 19:55 | 44.99902 | -66.96126 | 998 ft | 138 kts | 237° |
| 2026-04-17 19:56 | 44.99368 | -66.97240 | 1003 ft | 138 kts | 239° |
| 2026-04-17 19:56 | 44.98815 | -66.98367 | 1008 ft | 138 kts | 238° |
| 2026-04-17 19:56 | 44.98264 | -66.99482 | 1014 ft | 138 kts | 238° |
| 2026-04-17 19:56 | 44.97715 | -67.00591 | 1009 ft | 138 kts | 238° |
| 2026-04-17 19:57 | 44.97154 | -67.01724 | 1003 ft | 139 kts | 238° |
| 2026-04-17 19:57 | 44.96606 | -67.02824 | 1004 ft | 139 kts | 238° |
| 2026-04-17 19:57 | 44.96048 | -67.03946 | 1003 ft | 139 kts | 239° |
| 2026-04-17 19:57 | 44.95485 | -67.05073 | 998 ft | 139 kts | 238° |
| 2026-04-17 19:58 | 44.94946 | -67.06179 | 994 ft | 140 kts | 237° |
| 2026-04-17 19:58 | 44.94373 | -67.07348 | 864 ft | 146 kts | 238° |
| 2026-04-17 19:58 | 44.93795 | -67.08531 | 734 ft | 149 kts | 237° |
| 2026-04-17 19:58 | 44.93201 | -67.09747 | 608 ft | 149 kts | 237° |
| 2026-04-17 19:59 | 44.92615 | -67.10955 | 514 ft | 147 kts | 237° |
| 2026-04-17 19:59 | 44.92057 | -67.12116 | 497 ft | 142 kts | 238° |
| 2026-04-17 19:59 | 44.91508 | -67.13259 | 502 ft | 138 kts | 238° |
| 2026-04-17 19:59 | 44.90984 | -67.14357 | 501 ft | 137 kts | 239° |
| 2026-04-17 20:00 | 44.90462 | -67.15453 | 496 ft | 137 kts | 239° |
| 2026-04-17 20:00 | 44.89925 | -67.16562 | 499 ft | 137 kts | 238° |
| 2026-04-17 20:00 | 44.89387 | -67.17675 | 499 ft | 137 kts | 238° |
| 2026-04-17 20:00 | 44.88847 | -67.18797 | 498 ft | 137 kts | 237° |
| 2026-04-17 20:01 | 44.88317 | -67.19906 | 502 ft | 137 kts | 237° |
| 2026-04-17 20:01 | 44.87801 | -67.21002 | 501 ft | 137 kts | 239° |
| 2026-04-17 20:01 | 44.87277 | -67.22119 | 497 ft | 137 kts | 238° |
| 2026-04-17 20:01 | 44.86749 | -67.23233 | 497 ft | 137 kts | 237° |
| 2026-04-17 20:02 | 44.86233 | -67.24326 | 501 ft | 137 kts | 238° |
| 2026-04-17 20:02 | 44.85717 | -67.25420 | 503 ft | 137 kts | 238° |
| 2026-04-17 20:02 | 44.85203 | -67.26508 | 504 ft | 138 kts | 238° |
| 2026-04-17 20:02 | 44.84686 | -67.27602 | 502 ft | 137 kts | 238° |
| 2026-04-17 20:03 | 44.84170 | -67.28699 | 496 ft | 138 kts | 238° |
| 2026-04-17 20:03 | 44.83670 | -67.29765 | 503 ft | 137 kts | 237° |
| 2026-04-17 20:03 | 44.83171 | -67.30832 | 498 ft | 137 kts | 237° |
| 2026-04-17 20:03 | 44.82669 | -67.31898 | 490 ft | 136 kts | 237° |
| 2026-04-17 20:04 | 44.82162 | -67.32968 | 499 ft | 136 kts | 238° |
| 2026-04-17 20:04 | 44.81645 | -67.34064 | 499 ft | 137 kts | 238° |
| 2026-04-17 20:04 | 44.81108 | -67.35185 | 497 ft | 137 kts | 237° |
| 2026-04-17 20:04 | 44.80576 | -67.36306 | 498 ft | 137 kts | 238° |
| 2026-04-17 20:05 | 44.80044 | -67.37420 | 499 ft | 137 kts | 238° |
| 2026-04-17 20:05 | 44.79516 | -67.38529 | 501 ft | 137 kts | 238° |
| 2026-04-17 20:05 | 44.78983 | -67.39638 | 497 ft | 138 kts | 235° |
| 2026-04-17 20:05 | 44.78402 | -67.40699 | 496 ft | 138 kts | 234° |
| 2026-04-17 20:06 | 44.77645 | -67.41514 | 502 ft | 138 kts | 212° |
| 2026-04-17 20:06 | 44.76806 | -67.42217 | 500 ft | 139 kts | 212° |
| 2026-04-17 20:06 | 44.76010 | -67.42971 | 502 ft | 139 kts | 214° |
| 2026-04-17 20:06 | 44.75207 | -67.43742 | 506 ft | 139 kts | 215° |
| 2026-04-17 20:07 | 44.74399 | -67.44514 | 505 ft | 139 kts | 214° |
| 2026-04-17 20:07 | 44.73615 | -67.45268 | 493 ft | 139 kts | 214° |
| 2026-04-17 20:07 | 44.72816 | -67.46034 | 496 ft | 138 kts | 214° |
| 2026-04-17 20:07 | 44.72023 | -67.46800 | 500 ft | 138 kts | 215° |
| 2026-04-17 20:08 | 44.71230 | -67.47562 | 504 ft | 139 kts | 214° |
| 2026-04-17 20:08 | 44.70516 | -67.48448 | 478 ft | 139 kts | 241° |
| 2026-04-17 20:08 | 44.70076 | -67.49638 | 499 ft | 137 kts | 243° |
| 2026-04-17 20:08 | 44.69572 | -67.50779 | 502 ft | 139 kts | 241° |
| 2026-04-17 20:09 | 44.69063 | -67.51943 | 502 ft | 141 kts | 241° |
| 2026-04-17 20:09 | 44.68550 | -67.53114 | 505 ft | 141 kts | 241° |
| 2026-04-17 20:09 | 44.68031 | -67.54297 | 499 ft | 141 kts | 241° |
| 2026-04-17 20:09 | 44.67520 | -67.55464 | 499 ft | 141 kts | 241° |
| 2026-04-17 20:10 | 44.67007 | -67.56640 | 497 ft | 141 kts | 240° |
| 2026-04-17 20:10 | 44.66493 | -67.57822 | 498 ft | 141 kts | 241° |
| 2026-04-17 20:10 | 44.65980 | -67.58996 | 494 ft | 141 kts | 241° |
| 2026-04-17 20:10 | 44.65483 | -67.60146 | 500 ft | 140 kts | 240° |
| 2026-04-17 20:11 | 44.64988 | -67.61294 | 504 ft | 140 kts | 240° |
| 2026-04-17 20:11 | 44.64476 | -67.62468 | 502 ft | 140 kts | 239° |
| 2026-04-17 20:11 | 44.63970 | -67.63631 | 503 ft | 140 kts | 240° |
| 2026-04-17 20:11 | 44.63459 | -67.64803 | 495 ft | 141 kts | 240° |
| 2026-04-17 20:12 | 44.62948 | -67.65968 | 505 ft | 140 kts | 240° |
| 2026-04-17 20:12 | 44.62431 | -67.67128 | 502 ft | 141 kts | 238° |
| 2026-04-17 20:12 | 44.61906 | -67.68293 | 501 ft | 141 kts | 239° |
| 2026-04-17 20:12 | 44.61380 | -67.69454 | 502 ft | 141 kts | 238° |
| 2026-04-17 20:13 | 44.60909 | -67.70657 | 498 ft | 140 kts | 243° |
| 2026-04-17 20:13 | 44.60440 | -67.71851 | 509 ft | 141 kts | 242° |
| 2026-04-17 20:13 | 44.59959 | -67.73056 | 500 ft | 141 kts | 242° |
| 2026-04-17 20:13 | 44.59477 | -67.74262 | 499 ft | 141 kts | 242° |
| 2026-04-17 20:14 | 44.58997 | -67.75458 | 503 ft | 140 kts | 243° |
| 2026-04-17 20:14 | 44.58509 | -67.76635 | 500 ft | 141 kts | 241° |
| 2026-04-17 20:14 | 44.58012 | -67.77819 | 499 ft | 140 kts | 241° |
| 2026-04-17 20:14 | 44.57511 | -67.79004 | 501 ft | 140 kts | 242° |
| 2026-04-17 20:15 | 44.57040 | -67.80183 | 501 ft | 140 kts | 243° |
| 2026-04-17 20:15 | 44.56564 | -67.81398 | 497 ft | 140 kts | 243° |
| 2026-04-17 20:15 | 44.56085 | -67.82611 | 499 ft | 140 kts | 243° |
| 2026-04-17 20:15 | 44.55604 | -67.83836 | 503 ft | 141 kts | 243° |
| 2026-04-17 20:16 | 44.55130 | -67.85048 | 501 ft | 141 kts | 243° |
| 2026-04-17 20:16 | 44.54660 | -67.86255 | 498 ft | 142 kts | 243° |
| 2026-04-17 20:16 | 44.54192 | -67.87458 | 493 ft | 142 kts | 243° |
| 2026-04-17 20:16 | 44.53717 | -67.88687 | 497 ft | 142 kts | 243° |
| 2026-04-17 20:17 | 44.53253 | -67.89886 | 506 ft | 142 kts | 243° |
| 2026-04-17 20:17 | 44.52760 | -67.91074 | 499 ft | 142 kts | 239° |
| 2026-04-17 20:17 | 44.52203 | -67.92213 | 499 ft | 142 kts | 237° |
| 2026-04-17 20:17 | 44.51648 | -67.93359 | 499 ft | 142 kts | 238° |
| 2026-04-17 20:18 | 44.51091 | -67.94503 | 501 ft | 141 kts | 237° |
| 2026-04-17 20:18 | 44.50534 | -67.95643 | 503 ft | 141 kts | 236° |
| 2026-04-17 20:18 | 44.49984 | -67.96781 | 499 ft | 142 kts | 238° |
| 2026-04-17 20:18 | 44.49418 | -67.97926 | 501 ft | 143 kts | 237° |
| 2026-04-17 20:19 | 44.48875 | -67.99013 | 499 ft | 143 kts | 236° |
| 2026-04-17 20:19 | 44.48328 | -68.00112 | 500 ft | 143 kts | 235° |
| 2026-04-17 20:19 | 44.47796 | -68.01194 | 499 ft | 143 kts | 236° |
| 2026-04-17 20:19 | 44.47228 | -68.02338 | 499 ft | 143 kts | 236° |
| 2026-04-17 20:20 | 44.46672 | -68.03453 | 507 ft | 143 kts | 236° |
| 2026-04-17 20:20 | 44.46132 | -68.04530 | 503 ft | 143 kts | 237° |
| 2026-04-17 20:20 | 44.45568 | -68.05654 | 506 ft | 143 kts | 237° |
| 2026-04-17 20:20 | 44.45002 | -68.06785 | 502 ft | 144 kts | 236° |
| 2026-04-17 20:21 | 44.44431 | -68.07927 | 504 ft | 143 kts | 237° |
| 2026-04-17 20:21 | 44.43861 | -68.09059 | 507 ft | 143 kts | 236° |
| 2026-04-17 20:21 | 44.43289 | -68.10194 | 503 ft | 143 kts | 237° |
| 2026-04-17 20:21 | 44.42708 | -68.11339 | 501 ft | 142 kts | 236° |
| 2026-04-17 20:22 | 44.42135 | -68.12470 | 502 ft | 142 kts | 237° |
| 2026-04-17 20:22 | 44.41565 | -68.13599 | 509 ft | 142 kts | 237° |
| 2026-04-17 20:22 | 44.40992 | -68.14738 | 507 ft | 142 kts | 236° |
| 2026-04-17 20:22 | 44.40432 | -68.15860 | 507 ft | 141 kts | 237° |
| 2026-04-17 20:23 | 44.39867 | -68.16988 | 509 ft | 142 kts | 236° |
| 2026-04-17 20:23 | 44.39299 | -68.18089 | 481 ft | 134 kts | 236° |
| 2026-04-17 20:23 | 44.38778 | -68.19057 | 372 ft | 112 kts | 229° |
| 2026-04-17 20:23 | 44.38417 | -68.19795 | 303 ft | 74 kts | 244° |
| 2026-04-17 20:24 | 44.38273 | -68.20238 | 155 ft | 33 kts | 219° |
| 2026-04-17 20:24 | 44.38219 | -68.20384 | 39 ft | 2 kts | 85° |
| 2026-04-17 20:24 | 44.38219 | -68.20383 | 35 ft | 0 kts | 79° |
| 2026-04-17 20:25 | 44.38188 | -68.20211 | 85 ft | 54 kts | 100° |
| 2026-04-17 20:25 | 44.37888 | -68.19704 | 402 ft | 81 kts | 157° |
| 2026-04-17 20:26 | 44.37299 | -68.19946 | 633 ft | 101 kts | 225° |
| 2026-04-17 20:26 | 44.37027 | -68.20849 | 830 ft | 103 kts | 265° |
| 2026-04-17 20:26 | 44.36896 | -68.21850 | 1051 ft | 106 kts | 268° |
| 2026-04-17 20:26 | 44.36767 | -68.22869 | 1267 ft | 108 kts | 267° |
| 2026-04-17 20:27 | 44.36573 | -68.23998 | 1178 ft | 129 kts | 255° |
| 2026-04-17 20:27 | 44.36196 | -68.25211 | 1039 ft | 137 kts | 247° |
| 2026-04-17 20:27 | 44.35750 | -68.26377 | 1046 ft | 135 kts | 249° |
| 2026-04-17 20:27 | 44.35276 | -68.27567 | 1051 ft | 144 kts | 242° |
| 2026-04-17 20:28 | 44.34754 | -68.28775 | 1025 ft | 145 kts | 242° |
| 2026-04-17 20:28 | 44.34233 | -68.29969 | 1022 ft | 144 kts | 242° |
| 2026-04-17 20:28 | 44.33722 | -68.31175 | 1022 ft | 142 kts | 243° |
| 2026-04-17 20:28 | 44.33223 | -68.32367 | 1028 ft | 142 kts | 243° |
| 2026-04-17 20:29 | 44.32711 | -68.33583 | 1020 ft | 143 kts | 243° |
| 2026-04-17 20:29 | 44.32209 | -68.34770 | 1029 ft | 143 kts | 240° |
| 2026-04-17 20:29 | 44.31699 | -68.35972 | 1015 ft | 142 kts | 243° |
| 2026-04-17 20:29 | 44.31199 | -68.37162 | 1034 ft | 144 kts | 242° |
| 2026-04-17 20:30 | 44.30171 | -68.39563 | 1015 ft | 144 kts | 244° |
| 2026-04-17 20:30 | 44.29688 | -68.40775 | 1022 ft | 143 kts | 246° |
| 2026-04-17 20:30 | 44.29250 | -68.42049 | 1028 ft | 143 kts | 248° |
| 2026-04-17 20:31 | 44.28830 | -68.43312 | 1022 ft | 143 kts | 249° |
| 2026-04-17 20:31 | 44.28409 | -68.44557 | 978 ft | 145 kts | 248° |
| 2026-04-17 20:31 | 44.27963 | -68.45837 | 848 ft | 147 kts | 246° |
| 2026-04-17 20:31 | 44.27504 | -68.47124 | 719 ft | 147 kts | 246° |
| 2026-04-17 20:32 | 44.27044 | -68.48404 | 594 ft | 147 kts | 247° |
| 2026-04-17 20:32 | 44.26588 | -68.49658 | 516 ft | 144 kts | 245° |
| 2026-04-17 20:32 | 44.26140 | -68.50899 | 510 ft | 141 kts | 246° |
| 2026-04-17 20:32 | 44.25703 | -68.52129 | 506 ft | 141 kts | 246° |
| 2026-04-17 20:33 | 44.25267 | -68.53357 | 505 ft | 141 kts | 246° |
| 2026-04-17 20:33 | 44.24828 | -68.54587 | 506 ft | 142 kts | 244° |
| 2026-04-17 20:33 | 44.24381 | -68.55806 | 503 ft | 141 kts | 246° |
| 2026-04-17 20:33 | 44.23947 | -68.57036 | 500 ft | 141 kts | 246° |
| 2026-04-17 20:34 | 44.23515 | -68.58265 | 499 ft | 141 kts | 246° |
| 2026-04-17 20:34 | 44.23081 | -68.59484 | 502 ft | 141 kts | 246° |
| 2026-04-17 20:34 | 44.22641 | -68.60715 | 501 ft | 141 kts | 246° |
| 2026-04-17 20:34 | 44.22202 | -68.61945 | 500 ft | 141 kts | 245° |
| 2026-04-17 20:35 | 44.21757 | -68.63163 | 501 ft | 141 kts | 246° |
| 2026-04-17 20:35 | 44.21334 | -68.64339 | 509 ft | 141 kts | 246° |
| 2026-04-17 20:35 | 44.20903 | -68.65536 | 497 ft | 140 kts | 248° |
| 2026-04-17 20:35 | 44.20483 | -68.66717 | 497 ft | 140 kts | 245° |
| 2026-04-17 20:36 | 44.20056 | -68.67883 | 496 ft | 140 kts | 245° |
| 2026-04-17 20:36 | 44.19618 | -68.69097 | 503 ft | 140 kts | 246° |
| 2026-04-17 20:36 | 44.19188 | -68.70317 | 506 ft | 141 kts | 245° |
| 2026-04-17 20:36 | 44.18754 | -68.71526 | 500 ft | 133 kts | 248° |
| 2026-04-17 20:37 | 44.18367 | -68.72683 | 500 ft | 131 kts | 249° |
| 2026-04-17 20:37 | 44.17974 | -68.73815 | 500 ft | 130 kts | 248° |
| 2026-04-17 20:37 | 44.17577 | -68.74943 | 500 ft | 130 kts | 247° |
| 2026-04-17 20:37 | 44.17170 | -68.76070 | 500 ft | 130 kts | 247° |
| 2026-04-17 20:38 | 44.16767 | -68.77182 | 500 ft | 130 kts | 247° |
| 2026-04-17 20:38 | 44.16362 | -68.78310 | 499 ft | 129 kts | 247° |
| 2026-04-17 20:38 | 44.15960 | -68.79428 | 499 ft | 129 kts | 248° |
| 2026-04-17 20:38 | 44.15551 | -68.80568 | 500 ft | 129 kts | 247° |
| 2026-04-17 20:39 | 44.15146 | -68.81696 | 499 ft | 129 kts | 246° |
| 2026-04-17 20:39 | 44.14740 | -68.82807 | 498 ft | 130 kts | 246° |
| 2026-04-17 20:39 | 44.14221 | -68.83888 | 365 ft | 137 kts | 233° |
| 2026-04-17 20:39 | 44.13638 | -68.84918 | 295 ft | 133 kts | 235° |
| 2026-04-17 20:40 | 44.13065 | -68.85953 | 251 ft | 133 kts | 233° |
| 2026-04-17 20:40 | 44.12549 | -68.86835 | 125 ft | 100 kts | 238° |
| 2026-04-17 20:40 | 44.12467 | -68.87418 | 150 ft | 38 kts | 4° |
| 2026-04-17 20:40 | 44.12734 | -68.87447 | 105 ft | 38 kts | 2° |
| 2026-04-17 20:41 | 44.12896 | -68.87460 | 87 ft | 15 kts | 39° |
| 2026-04-17 20:41 | 44.12936 | -68.87420 | 31 ft | 0 kts | 32° |
| 2026-04-17 20:42 | 44.12923 | -68.87437 | 146 ft | 6 kts | 51° |
| 2026-04-17 20:42 | 44.13092 | -68.87129 | 217 ft | 76 kts | 63° |
| 2026-04-17 20:42 | 44.12696 | -68.86593 | 476 ft | 107 kts | 177° |
| 2026-04-17 20:43 | 44.12141 | -68.87280 | 759 ft | 109 kts | 246° |
| 2026-04-17 20:43 | 44.11950 | -68.88319 | 966 ft | 112 kts | 267° |
| 2026-04-17 20:43 | 44.11834 | -68.89456 | 987 ft | 126 kts | 267° |
| 2026-04-17 20:43 | 44.11595 | -68.90666 | 1015 ft | 132 kts | 253° |
| 2026-04-17 20:44 | 44.11268 | -68.91878 | 1001 ft | 136 kts | 253° |
| 2026-04-17 20:44 | 44.10921 | -68.93105 | 1005 ft | 137 kts | 251° |
| 2026-04-17 20:44 | 44.10531 | -68.94330 | 1007 ft | 138 kts | 247° |
| 2026-04-17 20:44 | 44.10126 | -68.95552 | 1007 ft | 139 kts | 248° |
| 2026-04-17 20:45 | 44.09729 | -68.96772 | 1006 ft | 139 kts | 248° |
| 2026-04-17 20:45 | 44.09321 | -68.97978 | 1005 ft | 138 kts | 248° |
| 2026-04-17 20:45 | 44.08897 | -68.99188 | 1005 ft | 138 kts | 247° |
| 2026-04-17 20:45 | 44.08470 | -69.00375 | 1006 ft | 138 kts | 246° |
| 2026-04-17 20:46 | 44.08037 | -69.01571 | 1010 ft | 138 kts | 246° |
| 2026-04-17 20:46 | 44.07604 | -69.02769 | 1008 ft | 138 kts | 247° |
| 2026-04-17 20:46 | 44.07159 | -69.03960 | 1007 ft | 138 kts | 245° |
| 2026-04-17 20:46 | 44.06703 | -69.05164 | 1009 ft | 138 kts | 246° |
| 2026-04-17 20:47 | 44.06250 | -69.06374 | 1010 ft | 139 kts | 244° |
| 2026-04-17 20:47 | 44.05797 | -69.07584 | 1012 ft | 142 kts | 246° |
| 2026-04-17 20:47 | 44.05335 | -69.08816 | 1012 ft | 143 kts | 246° |
| 2026-04-17 20:47 | 44.04891 | -69.10045 | 1008 ft | 143 kts | 246° |
| 2026-04-17 20:48 | 44.04443 | -69.11285 | 1010 ft | 143 kts | 246° |
| 2026-04-17 20:48 | 44.03994 | -69.12512 | 1009 ft | 142 kts | 245° |
| 2026-04-17 20:48 | 44.03543 | -69.13741 | 1010 ft | 142 kts | 245° |
| 2026-04-17 20:48 | 44.03085 | -69.14963 | 1012 ft | 143 kts | 244° |
| 2026-04-17 20:49 | 44.02634 | -69.16186 | 1006 ft | 142 kts | 247° |
| 2026-04-17 20:49 | 44.02196 | -69.17428 | 990 ft | 142 kts | 246° |
| 2026-04-17 20:49 | 44.01752 | -69.18687 | 783 ft | 150 kts | 245° |
| 2026-04-17 20:49 | 44.01271 | -69.19968 | 629 ft | 149 kts | 243° |
| 2026-04-17 20:50 | 44.00772 | -69.21191 | 471 ft | 149 kts | 239° |
| 2026-04-17 20:50 | 44.00272 | -69.22428 | 486 ft | 140 kts | 243° |
| 2026-04-17 20:50 | 43.99803 | -69.23634 | 509 ft | 140 kts | 244° |
| 2026-04-17 20:50 | 43.99345 | -69.24825 | 517 ft | 140 kts | 244° |
| 2026-04-17 20:51 | 43.98876 | -69.26032 | 536 ft | 140 kts | 242° |
| 2026-04-17 20:51 | 43.98403 | -69.27200 | 553 ft | 139 kts | 244° |
| 2026-04-17 20:51 | 43.97972 | -69.28426 | 493 ft | 142 kts | 249° |
| 2026-04-17 20:51 | 43.97568 | -69.29662 | 469 ft | 141 kts | 248° |
| 2026-04-17 20:52 | 43.97149 | -69.30911 | 460 ft | 140 kts | 248° |
| 2026-04-17 20:52 | 43.96733 | -69.32143 | 449 ft | 140 kts | 248° |
| 2026-04-17 20:52 | 43.96325 | -69.33358 | 438 ft | 140 kts | 248° |
| 2026-04-17 20:52 | 43.95903 | -69.34602 | 430 ft | 140 kts | 247° |
| 2026-04-17 20:53 | 43.95491 | -69.35825 | 424 ft | 140 kts | 248° |
| 2026-04-17 20:53 | 43.95082 | -69.37048 | 416 ft | 140 kts | 248° |
| 2026-04-17 20:53 | 43.94671 | -69.38260 | 409 ft | 139 kts | 247° |
| 2026-04-17 20:53 | 43.94259 | -69.39473 | 399 ft | 139 kts | 248° |
| 2026-04-17 20:54 | 43.93847 | -69.40698 | 391 ft | 140 kts | 249° |
| 2026-04-17 20:54 | 43.93391 | -69.41893 | 385 ft | 140 kts | 242° |
| 2026-04-17 20:54 | 43.92903 | -69.43079 | 427 ft | 138 kts | 242° |
| 2026-04-17 20:54 | 43.92416 | -69.44230 | 467 ft | 139 kts | 242° |
| 2026-04-17 20:55 | 43.91921 | -69.45388 | 513 ft | 138 kts | 240° |
| 2026-04-17 20:55 | 43.91443 | -69.46468 | 561 ft | 139 kts | 239° |
| 2026-04-17 20:55 | 43.90940 | -69.47610 | 581 ft | 139 kts | 242° |
| 2026-04-17 20:55 | 43.90464 | -69.48763 | 592 ft | 140 kts | 240° |
| 2026-04-17 20:56 | 43.89968 | -69.49902 | 605 ft | 140 kts | 239° |
| 2026-04-17 20:56 | 43.89447 | -69.51070 | 605 ft | 140 kts | 239° |
| 2026-04-17 20:56 | 43.88975 | -69.52199 | 605 ft | 140 kts | 244° |
| 2026-04-17 20:56 | 43.88580 | -69.53335 | 604 ft | 140 kts | 245° |
| 2026-04-17 20:57 | 43.88147 | -69.54527 | 585 ft | 141 kts | 243° |
| 2026-04-17 20:57 | 43.87624 | -69.55709 | 526 ft | 143 kts | 238° |
| 2026-04-17 20:57 | 43.87100 | -69.56856 | 490 ft | 142 kts | 240° |
| 2026-04-17 20:57 | 43.86614 | -69.58045 | 430 ft | 138 kts | 241° |
| 2026-04-17 20:58 | 43.86132 | -69.59187 | 364 ft | 134 kts | 240° |
| 2026-04-17 20:58 | 43.85646 | -69.60295 | 338 ft | 131 kts | 242° |
| 2026-04-17 20:58 | 43.85244 | -69.61379 | 361 ft | 123 kts | 248° |
| 2026-04-17 20:58 | 43.84818 | -69.62332 | 285 ft | 102 kts | 234° |
| 2026-04-17 20:59 | 43.84580 | -69.63053 | 231 ft | 58 kts | 306° |
| 2026-04-17 20:59 | 43.84760 | -69.63212 | 122 ft | 21 kts | 329° |
| 2026-04-17 20:59 | 43.84847 | -69.63403 | 106 ft | 30 kts | 308° |
| 2026-04-17 20:59 | 43.84959 | -69.63693 | 109 ft | 28 kts | 315° |
| 2026-04-17 21:00 | 43.85047 | -69.63784 | 30 ft | 7 kts | 330° |
| 2026-04-17 21:00 | 43.85066 | -69.63802 | 6 ft | 0 kts | 327° |